sensor_id;sensor_type;location;lat;lon;timestamp;pressure;altitude;pressure_sealevel;temperature;humidity
21276;BME280;36472;52.170;20.884;2022-11-21T00:01:27;99780.47;;;-3.39;100.00
21276;BME280;36472;52.170;20.884;2022-11-21T00:03:56;99783.81;;;-3.35;100.00
21276;BME280;36472;52.170;20.884;2022-11-21T00:06:25;99785.41;;;-3.30;100.00
21276;BME280;36472;52.170;20.884;2022-11-21T00:08:56;99778.63;;;-3.32;99.77
21276;BME280;36472;52.170;20.884;2022-11-21T00:11:24;99777.59;;;-3.24;100.00
21276;BME280;36472;52.170;20.884;2022-11-21T00:13:53;99784.28;;;-3.15;100.00
21276;BME280;36472;52.170;20.884;2022-11-21T00:16:22;99783.47;;;-3.17;100.00
21276;BME280;36472;52.170;20.884;2022-11-21T00:18:51;99776.56;;;-3.13;100.00
21276;BME280;36472;52.170;20.884;2022-11-21T00:21:19;99772.25;;;-3.13;99.90
21276;BME280;36472;52.170;20.884;2022-11-21T00:23:48;99776.34;;;-3.03;99.95
21276;BME280;36472;52.170;20.884;2022-11-21T00:26:18;99771.16;;;-3.01;99.58
21276;BME280;36472;52.170;20.884;2022-11-21T00:28:47;99776.25;;;-2.98;99.76
21276;BME280;36472;52.170;20.884;2022-11-21T00:31:21;99779.63;;;-2.96;99.52
21276;BME280;36472;52.170;20.884;2022-11-21T00:33:50;99779.75;;;-3.01;99.22
21276;BME280;36472;52.170;20.884;2022-11-21T00:36:19;99783.88;;;-2.92;99.60
21276;BME280;36472;52.170;20.884;2022-11-21T00:38:48;99776.81;;;-2.84;99.25
21276;BME280;36472;52.170;20.884;2022-11-21T00:41:18;99776.69;;;-2.76;99.38
21276;BME280;36472;52.170;20.884;2022-11-21T00:43:47;99778.38;;;-2.75;99.04
21276;BME280;36472;52.170;20.884;2022-11-21T00:46:15;99777.47;;;-2.72;98.40
21276;BME280;36472;52.170;20.884;2022-11-21T00:48:44;99767.34;;;-2.80;98.14
21276;BME280;36472;52.170;20.884;2022-11-21T00:51:13;99779.25;;;-2.76;98.55
21276;BME280;36472;52.170;20.884;2022-11-21T00:53:42;99769.78;;;-2.74;98.32
21276;BME280;36472;52.170;20.884;2022-11-21T00:56:10;99760.50;;;-2.81;98.40
21276;BME280;36472;52.170;20.884;2022-11-21T00:58:41;99759.38;;;-2.69;98.49
21276;BME280;36472;52.170;20.884;2022-11-21T01:01:12;99749.06;;;-2.68;98.28
21276;BME280;36472;52.170;20.884;2022-11-21T01:03:42;99747.25;;;-2.63;98.30
21276;BME280;36472;52.170;20.884;2022-11-21T01:06:14;99745.59;;;-2.67;97.76
21276;BME280;36472;52.170;20.884;2022-11-21T01:08:44;99743.03;;;-2.67;97.37
21276;BME280;36472;52.170;20.884;2022-11-21T01:11:15;99737.78;;;-2.62;97.38
21276;BME280;36472;52.170;20.884;2022-11-21T01:13:47;99730.03;;;-2.60;97.93
21276;BME280;36472;52.170;20.884;2022-11-21T01:16:19;99726.69;;;-2.64;98.12
21276;BME280;36472;52.170;20.884;2022-11-21T01:18:49;99732.59;;;-2.59;98.29
21276;BME280;36472;52.170;20.884;2022-11-21T01:21:23;99725.88;;;-2.66;97.83
21276;BME280;36472;52.170;20.884;2022-11-21T01:23:53;99737.78;;;-2.62;97.86
21276;BME280;36472;52.170;20.884;2022-11-21T01:26:25;99725.91;;;-2.68;97.61
21276;BME280;36472;52.170;20.884;2022-11-21T01:28:57;99726.88;;;-2.73;97.59
21276;BME280;36472;52.170;20.884;2022-11-21T01:31:28;99723.41;;;-2.71;97.75
21276;BME280;36472;52.170;20.884;2022-11-21T01:33:59;99722.72;;;-2.79;97.43
21276;BME280;36472;52.170;20.884;2022-11-21T01:36:30;99711.88;;;-2.92;97.45
21276;BME280;36472;52.170;20.884;2022-11-21T01:39:03;99717.91;;;-2.94;97.83
21276;BME280;36472;52.170;20.884;2022-11-21T01:41:35;99726.59;;;-3.00;97.82
21276;BME280;36472;52.170;20.884;2022-11-21T01:44:15;99720.84;;;-3.13;97.33
21276;BME280;36472;52.170;20.884;2022-11-21T01:46:45;99720.97;;;-3.19;98.12
21276;BME280;36472;52.170;20.884;2022-11-21T01:49:19;99723.59;;;-3.22;98.81
21276;BME280;36472;52.170;20.884;2022-11-21T01:51:54;99727.91;;;-3.23;98.87
21276;BME280;36472;52.170;20.884;2022-11-21T01:54:30;99728.00;;;-3.27;99.21
21276;BME280;36472;52.170;20.884;2022-11-21T01:57:05;99718.75;;;-3.38;99.00
21276;BME280;36472;52.170;20.884;2022-11-21T01:59:42;99723.13;;;-3.41;98.86
21276;BME280;36472;52.170;20.884;2022-11-21T02:02:18;99725.72;;;-3.43;98.89
21276;BME280;36472;52.170;20.884;2022-11-21T02:04:49;99729.13;;;-3.42;98.16
21276;BME280;36472;52.170;20.884;2022-11-21T02:07:22;99723.19;;;-3.46;97.38
21276;BME280;36472;52.170;20.884;2022-11-21T02:09:56;99719.06;;;-3.54;97.59
21276;BME280;36472;52.170;20.884;2022-11-21T02:12:32;99707.25;;;-3.63;97.48
21276;BME280;36472;52.170;20.884;2022-11-21T02:15:04;99715.88;;;-3.67;97.46
21276;BME280;36472;52.170;20.884;2022-11-21T02:17:33;99703.22;;;-3.77;97.94
21276;BME280;36472;52.170;20.884;2022-11-21T02:20:05;99694.78;;;-3.85;97.92
21276;BME280;36472;52.170;20.884;2022-11-21T02:22:42;99705.78;;;-3.78;97.69
21276;BME280;36472;52.170;20.884;2022-11-21T02:25:20;99705.09;;;-3.88;97.64
21276;BME280;36472;52.170;20.884;2022-11-21T02:27:53;99695.00;;;-3.97;97.63
21276;BME280;36472;52.170;20.884;2022-11-21T02:30:24;99713.81;;;-3.97;98.16
21276;BME280;36472;52.170;20.884;2022-11-21T02:32:55;99709.81;;;-4.11;97.97
21276;BME280;36472;52.170;20.884;2022-11-21T02:35:24;99714.88;;;-4.10;97.74
21276;BME280;36472;52.170;20.884;2022-11-21T02:37:58;99696.38;;;-4.29;97.82
21276;BME280;36472;52.170;20.884;2022-11-21T02:40:33;99708.34;;;-4.29;98.03
21276;BME280;36472;52.170;20.884;2022-11-21T02:43:11;99709.16;;;-4.26;98.07
21276;BME280;36472;52.170;20.884;2022-11-21T02:45:45;99716.09;;;-4.33;97.87
21276;BME280;36472;52.170;20.884;2022-11-21T02:48:14;99723.78;;;-4.33;97.58
21276;BME280;36472;52.170;20.884;2022-11-21T02:50:45;99738.34;;;-4.33;97.65
21276;BME280;36472;52.170;20.884;2022-11-21T02:53:17;99742.78;;;-4.44;96.85
21276;BME280;36472;52.170;20.884;2022-11-21T02:55:47;99733.44;;;-4.48;96.75
21276;BME280;36472;52.170;20.884;2022-11-21T02:58:16;99738.56;;;-4.47;96.79
21276;BME280;36472;52.170;20.884;2022-11-21T03:00:46;99735.16;;;-4.47;97.04
21276;BME280;36472;52.170;20.884;2022-11-21T03:03:14;99744.56;;;-4.49;97.43
21276;BME280;36472;52.170;20.884;2022-11-21T03:05:43;99741.34;;;-4.62;96.77
21276;BME280;36472;52.170;20.884;2022-11-21T03:08:12;99749.06;;;-4.67;96.80
21276;BME280;36472;52.170;20.884;2022-11-21T03:10:41;99742.34;;;-4.74;96.62
21276;BME280;36472;52.170;20.884;2022-11-21T03:13:11;99748.44;;;-4.83;96.68
21276;BME280;36472;52.170;20.884;2022-11-21T03:15:40;99753.66;;;-4.92;96.79
21276;BME280;36472;52.170;20.884;2022-11-21T03:18:08;99751.09;;;-4.91;96.92
21276;BME280;36472;52.170;20.884;2022-11-21T03:20:37;99750.91;;;-4.77;97.16
21276;BME280;36472;52.170;20.884;2022-11-21T03:23:06;99748.31;;;-4.75;96.82
21276;BME280;36472;52.170;20.884;2022-11-21T03:25:34;99759.47;;;-4.76;96.41
21276;BME280;36472;52.170;20.884;2022-11-21T03:28:03;99760.38;;;-4.83;96.12
21276;BME280;36472;52.170;20.884;2022-11-21T03:30:33;99750.22;;;-4.90;96.80
21276;BME280;36472;52.170;20.884;2022-11-21T03:33:02;99763.13;;;-4.97;96.47
21276;BME280;36472;52.170;20.884;2022-11-21T03:35:31;99762.38;;;-5.05;96.45
21276;BME280;36472;52.170;20.884;2022-11-21T03:38:00;99763.31;;;-5.13;96.15
21276;BME280;36472;52.170;20.884;2022-11-21T03:40:29;99763.28;;;-5.11;96.62
21276;BME280;36472;52.170;20.884;2022-11-21T03:43:03;99765.94;;;-5.17;96.17
21276;BME280;36472;52.170;20.884;2022-11-21T03:45:34;99764.25;;;-5.21;96.07
21276;BME280;36472;52.170;20.884;2022-11-21T03:48:03;99754.88;;;-5.21;96.59
21276;BME280;36472;52.170;20.884;2022-11-21T03:50:31;99760.84;;;-5.22;96.32
21276;BME280;36472;52.170;20.884;2022-11-21T03:53:00;99761.72;;;-5.24;96.56
21276;BME280;36472;52.170;20.884;2022-11-21T03:55:29;99754.03;;;-5.23;96.52
21276;BME280;36472;52.170;20.884;2022-11-21T03:57:57;99751.44;;;-5.20;96.41
21276;BME280;36472;52.170;20.884;2022-11-21T04:00:26;99752.28;;;-5.19;96.48
21276;BME280;36472;52.170;20.884;2022-11-21T04:02:56;99748.03;;;-5.20;95.99
21276;BME280;36472;52.170;20.884;2022-11-21T04:05:25;99743.88;;;-5.29;95.88
21276;BME280;36472;52.170;20.884;2022-11-21T04:07:54;99744.66;;;-5.26;96.29
21276;BME280;36472;52.170;20.884;2022-11-21T04:10:23;99734.44;;;-5.26;95.99
21276;BME280;36472;52.170;20.884;2022-11-21T04:12:51;99748.88;;;-5.20;95.51
21276;BME280;36472;52.170;20.884;2022-11-21T04:15:20;99748.13;;;-5.31;95.36
21276;BME280;36472;52.170;20.884;2022-11-21T04:17:49;99744.88;;;-5.46;95.05
21276;BME280;36472;52.170;20.884;2022-11-21T04:20:19;99750.97;;;-5.59;95.12
21276;BME280;36472;52.170;20.884;2022-11-21T04:22:48;99740.84;;;-5.68;95.57
21276;BME280;36472;52.170;20.884;2022-11-21T04:25:16;99747.59;;;-5.63;95.48
21276;BME280;36472;52.170;20.884;2022-11-21T04:27:45;99740.81;;;-5.67;95.71
21276;BME280;36472;52.170;20.884;2022-11-21T04:30:14;99737.44;;;-5.69;96.42
21276;BME280;36472;52.170;20.884;2022-11-21T04:32:43;99733.13;;;-5.64;96.43
21276;BME280;36472;52.170;20.884;2022-11-21T04:35:12;99725.41;;;-5.62;96.68
21276;BME280;36472;52.170;20.884;2022-11-21T04:37:42;99728.75;;;-5.55;96.40
21276;BME280;36472;52.170;20.884;2022-11-21T04:40:12;99717.69;;;-5.57;96.54
21276;BME280;36472;52.170;20.884;2022-11-21T04:42:42;99725.31;;;-5.51;96.96
21276;BME280;36472;52.170;20.884;2022-11-21T04:45:13;99721.94;;;-5.55;96.38
21276;BME280;36472;52.170;20.884;2022-11-21T04:47:45;99720.22;;;-5.56;96.43
21276;BME280;36472;52.170;20.884;2022-11-21T04:50:17;99710.88;;;-5.58;96.16
21276;BME280;36472;52.170;20.884;2022-11-21T04:52:51;99713.56;;;-5.72;95.42
21276;BME280;36472;52.170;20.884;2022-11-21T04:55:23;99725.53;;;-5.77;95.28
21276;BME280;36472;52.170;20.884;2022-11-21T04:57:53;99732.47;;;-5.87;94.79
21276;BME280;36472;52.170;20.884;2022-11-21T05:00:21;99739.28;;;-5.88;95.13
21276;BME280;36472;52.170;20.884;2022-11-21T05:02:51;99729.94;;;-5.87;95.91
21276;BME280;36472;52.170;20.884;2022-11-21T05:05:20;99724.72;;;-5.81;96.58
21276;BME280;36472;52.170;20.884;2022-11-21T05:07:49;99721.31;;;-5.77;96.84
21276;BME280;36472;52.170;20.884;2022-11-21T05:10:18;99722.13;;;-5.75;97.54
21276;BME280;36472;52.170;20.884;2022-11-21T05:12:47;99723.78;;;-5.71;97.58
21276;BME280;36472;52.170;20.884;2022-11-21T05:15:34;99736.59;;;-5.71;97.58
21276;BME280;36472;52.170;20.884;2022-11-21T05:18:02;99728.06;;;-5.70;97.95
21276;BME280;36472;52.170;20.884;2022-11-21T05:20:31;99731.41;;;-5.65;98.49
21276;BME280;36472;52.170;20.884;2022-11-21T05:23:04;99726.19;;;-5.57;99.06
21276;BME280;36472;52.170;20.884;2022-11-21T05:25:33;99721.00;;;-5.49;99.15
21276;BME280;36472;52.170;20.884;2022-11-21T05:28:02;99724.41;;;-5.47;98.88
21276;BME280;36472;52.170;20.884;2022-11-21T05:30:31;99718.47;;;-5.51;98.54
21276;BME280;36472;52.170;20.884;2022-11-21T05:32:59;99728.75;;;-5.57;97.44
21276;BME280;36472;52.170;20.884;2022-11-21T05:35:28;99722.81;;;-5.60;97.21
21276;BME280;36472;52.170;20.884;2022-11-21T05:37:57;99727.94;;;-5.60;97.58
21276;BME280;36472;52.170;20.884;2022-11-21T05:40:28;99731.44;;;-5.68;96.94
21276;BME280;36472;52.170;20.884;2022-11-21T05:42:56;99721.22;;;-5.71;96.85
21276;BME280;36472;52.170;20.884;2022-11-21T05:45:43;99717.84;;;-5.73;96.94
21276;BME280;36472;52.170;20.884;2022-11-21T05:48:11;99728.97;;;-5.74;96.80
21276;BME280;36472;52.170;20.884;2022-11-21T05:50:40;99730.63;;;-5.70;96.75
21276;BME280;36472;52.170;20.884;2022-11-21T05:53:09;99721.19;;;-5.68;96.78
21276;BME280;36472;52.170;20.884;2022-11-21T05:55:39;99716.91;;;-5.66;97.45
21276;BME280;36472;52.170;20.884;2022-11-21T05:58:08;99723.75;;;-5.66;97.53
21276;BME280;36472;52.170;20.884;2022-11-21T06:00:37;99720.34;;;-5.68;96.90
21276;BME280;36472;52.170;20.884;2022-11-21T06:03:08;99716.03;;;-5.61;96.77
21276;BME280;36472;52.170;20.884;2022-11-21T06:06:03;99710.97;;;-5.68;96.57
21276;BME280;36472;52.170;20.884;2022-11-21T06:08:34;99723.78;;;-5.69;96.25
21276;BME280;36472;52.170;20.884;2022-11-21T06:11:07;99711.88;;;-5.72;95.91
21276;BME280;36472;52.170;20.884;2022-11-21T06:13:37;99716.13;;;-5.72;96.18
21276;BME280;36472;52.170;20.884;2022-11-21T06:16:09;99720.34;;;-5.68;96.53
21276;BME280;36472;52.170;20.884;2022-11-21T06:18:41;99724.59;;;-5.66;96.20
21276;BME280;36472;52.170;20.884;2022-11-21T06:21:14;99713.50;;;-5.66;96.74
21276;BME280;36472;52.170;20.884;2022-11-21T06:23:43;99720.41;;;-5.73;96.17
21276;BME280;36472;52.170;20.884;2022-11-21T06:26:16;99727.09;;;-5.59;96.93
21276;BME280;36472;52.170;20.884;2022-11-21T06:28:46;99717.66;;;-5.54;96.92
21276;BME280;36472;52.170;20.884;2022-11-21T06:31:17;99715.06;;;-5.51;97.02
21276;BME280;36472;52.170;20.884;2022-11-21T06:33:49;99716.66;;;-5.41;97.35
21276;BME280;36472;52.170;20.884;2022-11-21T06:36:19;99722.56;;;-5.33;97.34
21276;BME280;36472;52.170;20.884;2022-11-21T06:38:47;99715.66;;;-5.26;97.12
21276;BME280;36472;52.170;20.884;2022-11-21T06:41:20;99725.78;;;-5.15;97.59
21276;BME280;36472;52.170;20.884;2022-11-21T06:43:49;99724.78;;;-5.05;97.27
21276;BME280;36472;52.170;20.884;2022-11-21T06:46:18;99720.53;;;-5.06;97.61
21276;BME280;36472;52.170;20.884;2022-11-21T06:48:46;99729.72;;;-4.90;97.29
21276;BME280;36472;52.170;20.884;2022-11-21T06:51:18;99730.50;;;-4.84;97.32
21276;BME280;36472;52.170;20.884;2022-11-21T06:53:52;99736.41;;;-4.76;97.68
21276;BME280;36472;52.170;20.884;2022-11-21T06:56:24;99732.94;;;-4.75;97.63
21276;BME280;36472;52.170;20.884;2022-11-21T06:58:54;99741.38;;;-4.65;97.75
21276;BME280;36472;52.170;20.884;2022-11-21T07:01:23;99726.00;;;-4.67;97.92
21276;BME280;36472;52.170;20.884;2022-11-21T07:03:52;99737.72;;;-4.49;97.67
21276;BME280;36472;52.170;20.884;2022-11-21T07:06:22;99738.50;;;-4.42;97.90
21276;BME280;36472;52.170;20.884;2022-11-21T07:08:52;99732.38;;;-4.34;97.70
21276;BME280;36472;52.170;20.884;2022-11-21T07:11:43;99726.25;;;-4.25;98.16
21276;BME280;36472;52.170;20.884;2022-11-21T07:14:12;99726.09;;;-4.16;97.60
21276;BME280;36472;52.170;20.884;2022-11-21T07:16:39;99711.28;;;-4.00;97.95
21276;BME280;36472;52.170;20.884;2022-11-21T07:19:08;99706.00;;;-3.89;97.62
21276;BME280;36472;52.170;20.884;2022-11-21T07:21:38;99708.34;;;-3.77;96.88
21276;BME280;36472;52.170;20.884;2022-11-21T07:24:07;99703.88;;;-3.65;96.86
21276;BME280;36472;52.170;20.884;2022-11-21T07:26:35;99708.06;;;-3.61;96.06
21276;BME280;36472;52.170;20.884;2022-11-21T07:29:05;99705.41;;;-3.55;96.33
21276;BME280;36472;52.170;20.884;2022-11-21T07:31:34;99712.16;;;-3.51;96.28
21276;BME280;36472;52.170;20.884;2022-11-21T07:34:03;99701.03;;;-3.50;96.33
21276;BME280;36472;52.170;20.884;2022-11-21T07:36:32;99697.44;;;-3.43;96.77
21276;BME280;36472;52.170;20.884;2022-11-21T07:39:02;99679.31;;;-3.36;97.36
21276;BME280;36472;52.170;20.884;2022-11-21T07:41:33;99686.94;;;-3.30;96.92
21276;BME280;36472;52.170;20.884;2022-11-21T07:44:02;99688.69;;;-3.32;96.72
21276;BME280;36472;52.170;20.884;2022-11-21T07:46:32;99691.19;;;-3.28;96.58
21276;BME280;36472;52.170;20.884;2022-11-21T07:49:00;99685.78;;;-3.15;96.99
21276;BME280;36472;52.170;20.884;2022-11-21T07:51:30;99680.44;;;-3.06;96.88
21276;BME280;36472;52.170;20.884;2022-11-21T07:53:59;99681.16;;;-2.99;96.52
21276;BME280;36472;52.170;20.884;2022-11-21T07:56:27;99692.19;;;-2.94;96.19
21276;BME280;36472;52.170;20.884;2022-11-21T07:58:56;99690.25;;;-2.83;96.28
21276;BME280;36472;52.170;20.884;2022-11-21T08:01:25;99695.47;;;-2.88;95.68
21276;BME280;36472;52.170;20.884;2022-11-21T08:03:55;99688.38;;;-2.75;96.47
21276;BME280;36472;52.170;20.884;2022-11-21T08:06:24;99692.25;;;-2.58;95.33
21276;BME280;36472;52.170;20.884;2022-11-21T08:08:53;99700.94;;;-2.63;95.30
21276;BME280;36472;52.170;20.884;2022-11-21T08:11:22;99697.41;;;-2.58;95.30
21276;BME280;36472;52.170;20.884;2022-11-21T08:13:52;99698.81;;;-2.45;95.33
21276;BME280;36472;52.170;20.884;2022-11-21T08:16:20;99688.31;;;-2.36;94.26
21276;BME280;36472;52.170;20.884;2022-11-21T08:18:55;99687.13;;;-2.22;94.20
21276;BME280;36472;52.170;20.884;2022-11-21T08:21:24;99690.72;;;-2.28;93.20
21276;BME280;36472;52.170;20.884;2022-11-21T08:23:53;99689.72;;;-2.22;93.48
21276;BME280;36472;52.170;20.884;2022-11-21T08:26:22;99680.91;;;-2.14;93.84
21276;BME280;36472;52.170;20.884;2022-11-21T08:28:51;99684.88;;;-2.00;93.56
21276;BME280;36472;52.170;20.884;2022-11-21T08:31:26;99686.16;;;-1.82;93.00
21276;BME280;36472;52.170;20.884;2022-11-21T08:33:56;99689.56;;;-1.82;92.36
21276;BME280;36472;52.170;20.884;2022-11-21T08:36:25;99688.56;;;-1.76;92.42
21276;BME280;36472;52.170;20.884;2022-11-21T08:38:53;99700.41;;;-1.69;91.99
21276;BME280;36472;52.170;20.884;2022-11-21T08:41:22;99692.59;;;-1.66;91.68
21276;BME280;36472;52.170;20.884;2022-11-21T08:44:08;99694.97;;;-1.58;91.54
21276;BME280;36472;52.170;20.884;2022-11-21T08:46:41;99693.72;;;-1.43;91.06
21276;BME280;36472;52.170;20.884;2022-11-21T08:49:11;99683.59;;;-1.20;89.73
21276;BME280;36472;52.170;20.884;2022-11-21T08:51:39;99683.59;;;-1.20;89.72
21276;BME280;36472;52.170;20.884;2022-11-21T08:54:08;99672.13;;;-1.09;89.45
21276;BME280;36472;52.170;20.884;2022-11-21T08:56:37;99676.25;;;-1.02;89.18
21276;BME280;36472;52.170;20.884;2022-11-21T08:59:06;99680.25;;;-0.92;88.91
21276;BME280;36472;52.170;20.884;2022-11-21T09:01:35;99674.69;;;-0.80;88.25
21276;BME280;36472;52.170;20.884;2022-11-21T09:04:04;99672.22;;;-0.83;87.41
21276;BME280;36472;52.170;20.884;2022-11-21T09:06:35;99672.03;;;-0.77;87.43
21276;BME280;36472;52.170;20.884;2022-11-21T09:09:05;99669.22;;;-0.69;87.28
21276;BME280;36472;52.170;20.884;2022-11-21T09:11:34;99672.41;;;-0.61;87.32
21276;BME280;36472;52.170;20.884;2022-11-21T09:14:04;99666.09;;;-0.52;86.99
21276;BME280;36472;52.170;20.884;2022-11-21T09:16:50;99665.66;;;-0.38;86.58
21276;BME280;36472;52.170;20.884;2022-11-21T09:19:36;99676.47;;;-0.25;84.77
21276;BME280;36472;52.170;20.884;2022-11-21T09:22:06;99673.63;;;-0.17;83.90
21276;BME280;36472;52.170;20.884;2022-11-21T09:24:35;99668.75;;;0.00;83.46
21276;BME280;36472;52.170;20.884;2022-11-21T09:27:04;99674.28;;;0.14;83.58
21276;BME280;36472;52.170;20.884;2022-11-21T09:29:33;99670.34;;;0.29;83.03
21276;BME280;36472;52.170;20.884;2022-11-21T09:32:01;99666.22;;;0.24;82.56
21276;BME280;36472;52.170;20.884;2022-11-21T09:34:30;99660.41;;;0.17;82.59
21276;BME280;36472;52.170;20.884;2022-11-21T09:36:59;99657.78;;;0.18;83.38
21276;BME280;36472;52.170;20.884;2022-11-21T09:39:29;99650.06;;;0.17;83.34
21276;BME280;36472;52.170;20.884;2022-11-21T09:42:23;99645.97;;;0.11;83.45
21276;BME280;36472;52.170;20.884;2022-11-21T09:45:07;99643.81;;;0.24;84.04
21276;BME280;36472;52.170;20.884;2022-11-21T09:47:43;99649.63;;;0.31;82.12
21276;BME280;36472;52.170;20.884;2022-11-21T09:50:25;99644.38;;;0.32;82.01
21276;BME280;36472;52.170;20.884;2022-11-21T09:53:01;99635.06;;;0.28;82.19
21276;BME280;36472;52.170;20.884;2022-11-21T09:55:43;99629.19;;;0.23;81.67
21276;BME280;36472;52.170;20.884;2022-11-21T09:58:23;99635.09;;;0.27;82.02
21276;BME280;36472;52.170;20.884;2022-11-21T10:00:53;99630.66;;;0.30;82.69
21276;BME280;36472;52.170;20.884;2022-11-21T10:03:28;99624.28;;;0.41;82.19
21276;BME280;36472;52.170;20.884;2022-11-21T10:06:02;99610.56;;;0.39;82.52
21276;BME280;36472;52.170;20.884;2022-11-21T10:08:41;99612.75;;;0.49;82.51
21276;BME280;36472;52.170;20.884;2022-11-21T10:11:34;99609.16;;;0.53;81.38
21276;BME280;36472;52.170;20.884;2022-11-21T10:14:46;99599.63;;;0.55;81.07
21276;BME280;36472;52.170;20.884;2022-11-21T10:17:32;99598.47;;;0.63;79.89
21276;BME280;36472;52.170;20.884;2022-11-21T10:20:27;99600.78;;;0.70;80.22
21276;BME280;36472;52.170;20.884;2022-11-21T10:23:29;99600.97;;;0.66;79.94
21276;BME280;36472;52.170;20.884;2022-11-21T10:26:14;99594.75;;;0.70;80.38
21276;BME280;36472;52.170;20.884;2022-11-21T10:28:51;99594.53;;;0.76;80.20
21276;BME280;36472;52.170;20.884;2022-11-21T10:31:24;99599.91;;;0.93;80.16
21276;BME280;36472;52.170;20.884;2022-11-21T10:33:59;99601.13;;;1.07;79.49
21276;BME280;36472;52.170;20.884;2022-11-21T10:36:35;99592.31;;;1.11;78.71
21276;BME280;36472;52.170;20.884;2022-11-21T10:39:14;99595.84;;;1.10;79.22
21276;BME280;36472;52.170;20.884;2022-11-21T10:41:52;99600.97;;;1.11;78.66
21276;BME280;36472;52.170;20.884;2022-11-21T10:44:27;99598.78;;;1.23;78.41
21276;BME280;36472;52.170;20.884;2022-11-21T10:47:21;99592.81;;;1.21;78.58
21276;BME280;36472;52.170;20.884;2022-11-21T10:50:05;99587.59;;;1.22;78.02
21276;BME280;36472;52.170;20.884;2022-11-21T10:52:46;99591.94;;;1.22;78.54
21276;BME280;36472;52.170;20.884;2022-11-21T10:55:17;99592.75;;;1.22;78.75
21276;BME280;36472;52.170;20.884;2022-11-21T10:57:48;99588.06;;;1.32;78.71
21276;BME280;36472;52.170;20.884;2022-11-21T11:00:23;99587.03;;;1.36;78.36
21276;BME280;36472;52.170;20.884;2022-11-21T11:03:04;99584.38;;;1.38;78.58
21276;BME280;36472;52.170;20.884;2022-11-21T11:05:34;99580.63;;;1.45;79.35
21276;BME280;36472;52.170;20.884;2022-11-21T11:08:07;99573.72;;;1.45;78.61
21276;BME280;36472;52.170;20.884;2022-11-21T11:10:38;99581.16;;;1.53;79.21
21276;BME280;36472;52.170;20.884;2022-11-21T11:13:13;99581.03;;;1.56;78.86
21276;BME280;36472;52.170;20.884;2022-11-21T11:16:20;99593.25;;;1.75;77.98
21276;BME280;36472;52.170;20.884;2022-11-21T11:18:56;99597.31;;;1.80;77.80
21276;BME280;36472;52.170;20.884;2022-11-21T11:21:28;99594.47;;;1.86;78.06
21276;BME280;36472;52.170;20.884;2022-11-21T11:24:23;99600.63;;;2.04;77.56
21276;BME280;36472;52.170;20.884;2022-11-21T11:26:59;99587.53;;;2.08;77.61
21276;BME280;36472;52.170;20.884;2022-11-21T11:29:30;99583.47;;;2.02;77.52
21276;BME280;36472;52.170;20.884;2022-11-21T11:32:14;99587.06;;;1.98;77.15
21276;BME280;36472;52.170;20.884;2022-11-21T11:34:57;99588.31;;;1.89;78.48
21276;BME280;36472;52.170;20.884;2022-11-21T11:37:34;99589.41;;;1.83;78.88
21276;BME280;36472;52.170;20.884;2022-11-21T11:40:20;99590.13;;;1.87;79.68
21276;BME280;36472;52.170;20.884;2022-11-21T11:43:05;99593.38;;;1.92;79.70
21276;BME280;36472;52.170;20.884;2022-11-21T11:46:13;99587.00;;;1.99;78.85
21276;BME280;36472;52.170;20.884;2022-11-21T11:49:14;99592.06;;;2.02;78.46
21276;BME280;36472;52.170;20.884;2022-11-21T11:51:52;99590.94;;;2.08;79.31
21276;BME280;36472;52.170;20.884;2022-11-21T11:54:28;99580.75;;;2.05;78.66
21276;BME280;36472;52.170;20.884;2022-11-21T11:57:03;99580.06;;;2.20;78.88
21276;BME280;36472;52.170;20.884;2022-11-21T11:59:37;99575.25;;;2.32;79.20
21276;BME280;36472;52.170;20.884;2022-11-21T12:02:19;99579.75;;;2.47;78.74
21276;BME280;36472;52.170;20.884;2022-11-21T12:04:56;99579.63;;;2.50;77.39
21276;BME280;36472;52.170;20.884;2022-11-21T12:07:37;99578.16;;;2.64;76.61
21276;BME280;36472;52.170;20.884;2022-11-21T12:10:33;99574.75;;;2.42;77.75
21276;BME280;36472;52.170;20.884;2022-11-21T12:13:28;99572.38;;;2.38;78.14
21276;BME280;36472;52.170;20.884;2022-11-21T12:16:03;99576.59;;;2.40;78.47
21276;BME280;36472;52.170;20.884;2022-11-21T12:18:50;99570.00;;;2.33;78.59
21276;BME280;36472;52.170;20.884;2022-11-21T12:21:22;99561.31;;;2.34;78.53
21276;BME280;36472;52.170;20.884;2022-11-21T12:23:53;99556.25;;;2.31;78.94
21276;BME280;36472;52.170;20.884;2022-11-21T12:26:38;99548.28;;;2.36;79.18
21276;BME280;36472;52.170;20.884;2022-11-21T12:29:26;99540.91;;;2.27;79.93
21276;BME280;36472;52.170;20.884;2022-11-21T12:35:38;99527.22;;;2.23;80.45
21276;BME280;36472;52.170;20.884;2022-11-21T12:38:26;99532.63;;;2.18;80.19
21276;BME280;36472;52.170;20.884;2022-11-21T12:41:10;99533.53;;;2.17;80.74
21276;BME280;36472;52.170;20.884;2022-11-21T12:44:09;99514.63;;;2.15;80.69
21276;BME280;36472;52.170;20.884;2022-11-21T12:46:51;99524.25;;;2.12;81.44
21276;BME280;36472;52.170;20.884;2022-11-21T12:49:34;99534.34;;;1.99;82.18
21276;BME280;36472;52.170;20.884;2022-11-21T12:52:32;99530.69;;;2.03;82.67
21276;BME280;36472;52.170;20.884;2022-11-21T12:55:35;99526.44;;;2.02;82.82
21276;BME280;36472;52.170;20.884;2022-11-21T12:58:17;99521.44;;;1.97;83.09
21276;BME280;36472;52.170;20.884;2022-11-21T13:01:16;99522.41;;;1.95;83.51
21276;BME280;36472;52.170;20.884;2022-11-21T13:03:58;99528.84;;;1.86;84.35
21276;BME280;36472;52.170;20.884;2022-11-21T13:06:34;99535.31;;;1.76;85.17
21276;BME280;36472;52.170;20.884;2022-11-21T13:09:12;99525.31;;;1.68;85.75
21276;BME280;36472;52.170;20.884;2022-11-21T13:11:53;99525.03;;;1.74;85.37
21276;BME280;36472;52.170;20.884;2022-11-21T13:14:42;99517.59;;;1.66;86.05
21276;BME280;36472;52.170;20.884;2022-11-21T13:17:33;99519.34;;;1.66;86.43
21276;BME280;36472;52.170;20.884;2022-11-21T13:20:14;99530.84;;;1.59;87.27
21276;BME280;36472;52.170;20.884;2022-11-21T13:22:51;99524.19;;;1.53;87.51
21276;BME280;36472;52.170;20.884;2022-11-21T13:25:42;99516.44;;;1.53;87.47
21276;BME280;36472;52.170;20.884;2022-11-21T13:28:35;99518.13;;;1.54;88.15
21276;BME280;36472;52.170;20.884;2022-11-21T13:31:30;99518.38;;;1.48;88.77